< < Back
Terminal Aerodrome Forecast


Current Version              Previous Versions:   1  2  3  4  5  6  7  8  9  

Terminal Aerodrome Forecast

021
FTUS44 KMOB 261740
TAFPNS
TAF
KPNS 261740Z 2618/2718 16016KT 4SM -RA BR BKN009 BKN030 OVC090
      TEMPO 2618/2620 VRB15G25KT 3SM TSRA BKN015CB
     FM262100 18011KT 6SM -SHRA BKN030 OVC080
      TEMPO 2703/2707 4SM SHRA BKN025
     FM270700 33012KT P6SM BKN010 OVC060
     FM271500 33015KT P6SM SCT030=



Latest METAR

360
SAUS70 KWBC 270500 RRT
MTRPNS
METAR KPNS 270453Z AUTO 26007KT 10SM BKN016 BKN028 OVC034 19/18 A2984
RMK AO2 RAB16E26 SLP106 P0000 T01890178


USA.gov is the U.S. government's official web portal to all federal, state and local government web resources and services.